Time;durP1;ratioP1;P1;durP2;ratioP2;P2;SDS_P1;SDS_P2;PMS_P1;PMS_P2;Temp;Humidity;BMP_temperature;BMP_pressure;BME280_temperature;BME280_humidity;BME280_pressure;Samples;Min_cycle;Max_cycle;Signal;HPM_P1;HPM_P2
2021/12/31 00:02:22;;;;;;;10.27;4.57;;;14.90;99.90;;;;;;5082542;27;39614;-74
2021/12/31 00:04:49;;;;;;;12.38;4.75;;;14.90;99.90;;;;;;5096454;27;38065;-72
2021/12/31 00:07:16;;;;;;;9.10;4.43;;;14.90;99.90;;;;;;5099601;27;39336;-72
2021/12/31 00:09:42;;;;;;;9.32;4.47;;;14.90;99.90;;;;;;5067161;28;38723;-72
2021/12/31 00:12:08;;;;;;;9.23;4.28;;;14.90;99.90;;;;;;5099878;27;38394;-72
2021/12/31 00:14:36;;;;;;;12.65;4.63;;;14.90;99.90;;;;;;5100179;27;37445;-73
2021/12/31 00:17:03;;;;;;;13.40;4.95;;;15.00;99.90;;;;;;5095462;27;39610;-72
2021/12/31 00:19:32;;;;;;;13.73;4.15;;;15.00;99.90;;;;;;5092207;28;38353;-73
2021/12/31 00:22:07;;;;;;;9.70;4.30;;;15.00;99.90;;;;;;5091578;27;36725;-72
2021/12/31 00:24:33;;;;;;;8.15;3.45;;;15.10;99.90;;;;;;5096947;27;48527;-73
2021/12/31 00:26:59;;;;;;;7.88;3.75;;;15.10;99.90;;;;;;5110250;27;38722;-72
2021/12/31 00:29:26;;;;;;;10.63;3.65;;;15.00;99.90;;;;;;5116301;27;37927;-72
2021/12/31 00:31:52;;;;;;;9.70;4.07;;;15.00;99.90;;;;;;5092670;28;38951;-72
2021/12/31 00:34:18;;;;;;;9.13;3.20;;;15.10;99.90;;;;;;5100593;27;37303;-72
2021/12/31 00:36:45;;;;;;;6.70;3.60;;;15.10;99.90;;;;;;5073678;27;39416;-72
2021/12/31 00:39:13;;;;;;;9.35;3.50;;;15.00;99.90;;;;;;5101545;27;38255;-72
2021/12/31 00:41:39;;;;;;;8.10;3.38;;;15.00;99.90;;;;;;5104763;27;38150;-73
2021/12/31 00:44:05;;;;;;;8.32;3.85;;;15.10;99.90;;;;;;5103035;27;39311;-72
2021/12/31 00:46:32;;;;;;;10.13;3.05;;;15.00;99.90;;;;;;5085372;28;40364;-72
2021/12/31 00:49:02;;;;;;;7.57;3.45;;;15.10;99.90;;;;;;5083390;27;37014;-72
2021/12/31 00:51:28;;;;;;;8.38;3.13;;;15.10;99.90;;;;;;5083287;27;47410;-73
2021/12/31 00:53:54;;;;;;;8.05;3.22;;;15.00;99.90;;;;;;5103739;27;36988;-73
2021/12/31 00:56:20;;;;;;;9.50;3.22;;;15.00;99.90;;;;;;5082868;28;39405;-72
2021/12/31 00:58:47;;;;;;;6.80;3.20;;;15.00;99.90;;;;;;5088858;27;38530;-72
2021/12/31 01:01:18;;;;;;;9.65;3.10;;;15.00;99.90;;;;;;5089206;27;39421;-72
2021/12/31 01:03:45;;;;;;;10.23;3.25;;;15.00;99.90;;;;;;5106463;27;37220;-72
2021/12/31 01:06:11;;;;;;;6.60;3.20;;;15.10;99.90;;;;;;5084966;28;39132;-73
2021/12/31 01:08:39;;;;;;;7.13;3.17;;;15.10;99.90;;;;;;5080517;27;38816;-73
2021/12/31 01:11:05;;;;;;;9.70;2.85;;;15.10;99.90;;;;;;5086241;27;39610;-73
2021/12/31 01:13:47;;;;;;;7.28;2.83;;;15.20;99.90;;;;;;5103646;27;37996;-73
2021/12/31 01:16:15;;;;;;;10.93;3.25;;;15.20;99.90;;;;;;5090360;27;37926;-73
2021/12/31 01:21:22;;;;;;;7.80;2.90;;;15.20;99.90;;;;;;5097431;27;38497;-73
2021/12/31 01:23:49;;;;;;;10.43;2.90;;;15.20;99.90;;;;;;5080599;27;36068;-73
2021/12/31 01:26:16;;;;;;;8.50;3.00;;;15.20;99.90;;;;;;5103962;27;39179;-73
2021/12/31 01:28:42;;;;;;;7.57;2.78;;;15.30;99.90;;;;;;5082819;27;37475;-73
2021/12/31 01:31:08;;;;;;;7.10;2.35;;;15.30;99.90;;;;;;5084240;28;37191;-72
2021/12/31 01:33:34;;;;;;;5.85;2.33;;;15.30;99.90;;;;;;5104130;27;37253;-73
2021/12/31 01:36:00;;;;;;;8.77;2.38;;;15.30;99.90;;;;;;5076369;28;37908;-73
2021/12/31 01:38:28;;;;;;;7.53;2.47;;;15.30;99.90;;;;;;5086746;27;37197;-73
2021/12/31 01:40:54;;;;;;;7.93;2.60;;;15.20;99.90;;;;;;5092170;28;38944;-73
2021/12/31 01:43:20;;;;;;;8.85;2.90;;;15.20;99.90;;;;;;5081868;28;36249;-72
2021/12/31 01:45:54;;;;;;;11.48;2.80;;;15.20;99.90;;;;;;5078364;27;38905;-72
2021/12/31 01:48:28;;;;;;;7.35;2.20;;;15.20;99.90;;;;;;5096907;27;38508;-73
2021/12/31 01:50:54;;;;;;;7.82;2.83;;;15.30;99.90;;;;;;5103812;27;39090;-72
2021/12/31 01:53:22;;;;;;;7.18;2.60;;;15.30;99.90;;;;;;5074058;28;37526;-72
2021/12/31 01:55:51;;;;;;;4.75;2.03;;;15.30;99.90;;;;;;5101409;27;38666;-73
2021/12/31 01:58:22;;;;;;;4.43;2.17;;;15.20;99.90;;;;;;5102803;27;38125;-72
2021/12/31 02:00:48;;;;;;;9.00;2.40;;;15.30;99.90;;;;;;5084104;27;37086;-72
2021/12/31 02:03:17;;;;;;;6.20;2.88;;;15.20;99.90;;;;;;5077454;28;36206;-72
2021/12/31 02:05:43;;;;;;;7.78;2.40;;;15.20;99.90;;;;;;5096981;27;39437;-71
2021/12/31 02:08:09;;;;;;;11.98;3.05;;;15.20;99.90;;;;;;5087512;27;37562;-72
2021/12/31 02:10:35;;;;;;;6.53;2.58;;;15.10;99.90;;;;;;5104695;27;38159;-72
2021/12/31 02:13:01;;;;;;;7.88;2.58;;;15.00;99.90;;;;;;5104529;27;36974;-72
2021/12/31 02:15:30;;;;;;;7.97;2.80;;;15.00;99.90;;;;;;5090772;27;39318;-73
2021/12/31 02:17:59;;;;;;;5.45;2.75;;;14.90;99.90;;;;;;5090815;27;37214;-72
2021/12/31 02:20:36;;;;;;;10.35;2.75;;;14.90;99.90;;;;;;5107916;27;40130;-72
2021/12/31 02:23:07;;;;;;;5.70;1.85;;;14.90;99.90;;;;;;5108879;27;37376;-72
2021/12/31 02:25:36;;;;;;;14.90;2.33;;;14.90;99.90;;;;;;5114237;27;48632;-72
2021/12/31 02:28:02;;;;;;;7.70;2.75;;;15.00;99.90;;;;;;5118450;27;38413;-72
2021/12/31 02:30:29;;;;;;;5.97;2.47;;;15.00;99.90;;;;;;5108096;27;49675;-73
2021/12/31 02:32:56;;;;;;;9.70;2.85;;;15.00;99.90;;;;;;5093328;27;36133;-73
2021/12/31 02:35:22;;;;;;;7.40;2.50;;;15.10;99.90;;;;;;5098934;27;38788;-72
2021/12/31 02:37:48;;;;;;;8.70;2.38;;;15.10;99.90;;;;;;5090405;27;37139;-73
2021/12/31 02:40:16;;;;;;;5.70;2.15;;;15.10;99.90;;;;;;5103000;27;36978;-73
2021/12/31 02:42:43;;;;;;;8.52;2.22;;;15.10;99.90;;;;;;5103789;27;37000;-73
2021/12/31 02:45:11;;;;;;;7.22;2.50;;;15.10;99.90;;;;;;5088907;27;38347;-72
2021/12/31 02:47:43;;;;;;;5.97;2.60;;;15.10;99.90;;;;;;5097360;27;38335;-72
2021/12/31 02:50:12;;;;;;;7.75;2.38;;;15.10;99.90;;;;;;5104482;27;37441;-73
2021/12/31 02:52:39;;;;;;;9.77;2.20;;;15.20;99.90;;;;;;5106140;27;37085;-73
2021/12/31 02:55:05;;;;;;;8.85;2.08;;;15.20;99.90;;;;;;5113286;27;39491;-73
2021/12/31 02:57:32;;;;;;;5.75;1.98;;;15.10;99.90;;;;;;5113320;27;39478;-72
2021/12/31 02:59:59;;;;;;;3.05;1.73;;;15.10;99.90;;;;;;5088765;27;38347;-73
2021/12/31 03:02:26;;;;;;;4.70;2.00;;;15.10;99.90;;;;;;5080715;27;36251;-73
2021/12/31 03:04:55;;;;;;;8.50;2.42;;;15.10;99.90;;;;;;5111212;27;39614;-73
2021/12/31 03:07:22;;;;;;;11.57;2.55;;;15.10;99.90;;;;;;5081681;28;37411;-73
2021/12/31 03:09:50;;;;;;;9.98;2.35;;;15.10;99.90;;;;;;5084926;27;36832;-72
2021/12/31 03:12:17;;;;;;;9.98;2.20;;;15.10;99.90;;;;;;5087214;27;35987;-72
2021/12/31 03:14:46;;;;;;;5.68;1.80;;;15.10;99.90;;;;;;5078528;27;37869;-72
2021/12/31 03:17:13;;;;;;;5.85;1.90;;;15.10;99.90;;;;;;5094777;27;39027;-73
2021/12/31 03:19:42;;;;;;;6.25;2.10;;;15.20;99.90;;;;;;5100313;27;38021;-72
2021/12/31 03:22:08;;;;;;;5.28;1.70;;;15.10;99.90;;;;;;5105414;27;37343;-72
2021/12/31 03:24:35;;;;;;;6.53;1.80;;;15.20;99.90;;;;;;5098093;27;38410;-72
2021/12/31 03:27:01;;;;;;;5.60;1.77;;;15.20;99.90;;;;;;5089654;27;37244;-72
2021/12/31 03:29:27;;;;;;;7.70;1.80;;;15.20;99.90;;;;;;5097755;27;49200;-73
2021/12/31 03:31:53;;;;;;;5.85;2.03;;;15.20;99.90;;;;;;5107217;27;37104;-72
2021/12/31 03:34:20;;;;;;;5.38;1.60;;;15.20;99.90;;;;;;5071518;27;40226;-72
2021/12/31 03:36:46;;;;;;;6.05;1.75;;;15.20;99.90;;;;;;5077127;27;37292;-73
2021/12/31 03:39:12;;;;;;;4.50;1.60;;;15.20;99.90;;;;;;5109293;27;38119;-73
2021/12/31 03:41:39;;;;;;;7.68;1.77;;;15.20;99.90;;;;;;5105818;27;38208;-73
2021/12/31 03:44:06;;;;;;;6.40;1.92;;;15.20;99.90;;;;;;5083314;27;39053;-74
2021/12/31 03:46:32;;;;;;;6.07;1.88;;;15.20;99.90;;;;;;5115555;27;38505;-73
2021/12/31 03:48:59;;;;;;;8.15;2.15;;;15.20;99.90;;;;;;5106653;27;38994;-73
2021/12/31 03:51:25;;;;;;;6.10;1.73;;;15.20;99.90;;;;;;5083516;27;39439;-73
2021/12/31 03:53:51;;;;;;;7.50;1.73;;;15.20;99.90;;;;;;5086316;28;39375;-73
2021/12/31 03:56:20;;;;;;;7.63;1.98;;;15.20;99.90;;;;;;5103829;27;39235;-72
2021/12/31 03:58:46;;;;;;;6.07;1.80;;;15.20;99.90;;;;;;5108940;27;38630;-72
2021/12/31 04:01:12;;;;;;;6.60;1.80;;;15.20;99.90;;;;;;5101663;27;37107;-72
2021/12/31 04:03:38;;;;;;;7.88;2.28;;;15.20;99.90;;;;;;5087722;28;39159;-72
2021/12/31 04:06:04;;;;;;;7.15;1.90;;;15.20;99.90;;;;;;5091956;27;38200;-71
2021/12/31 04:08:30;;;;;;;5.28;1.75;;;15.10;99.90;;;;;;5090470;27;38535;-72
2021/12/31 04:10:57;;;;;;;4.65;1.60;;;15.10;99.90;;;;;;5113936;27;38124;-72
2021/12/31 04:13:23;;;;;;;5.88;1.73;;;15.10;99.90;;;;;;5114462;27;37790;-72
2021/12/31 04:15:49;;;;;;;5.50;2.13;;;15.10;99.90;;;;;;5105141;27;38651;-72
2021/12/31 04:18:15;;;;;;;7.05;1.80;;;15.10;99.90;;;;;;5077007;28;39791;-71
2021/12/31 04:20:44;;;;;;;7.00;2.45;;;15.10;99.90;;;;;;5099317;27;37571;-71
2021/12/31 04:23:14;;;;;;;6.43;1.92;;;15.10;99.90;;;;;;5093938;27;39220;-72
2021/12/31 04:25:43;;;;;;;4.80;1.90;;;15.10;99.90;;;;;;5110330;27;39316;-72
2021/12/31 04:28:10;;;;;;;6.65;1.80;;;15.10;99.90;;;;;;5101617;27;38075;-73
2021/12/31 04:30:36;;;;;;;5.10;1.80;;;15.00;99.90;;;;;;5102016;27;38352;-73
2021/12/31 04:33:03;;;;;;;7.28;1.80;;;15.00;99.90;;;;;;5094418;27;40530;-72
2021/12/31 04:35:29;;;;;;;4.22;1.50;;;15.00;99.90;;;;;;5094821;28;39512;-72
2021/12/31 04:37:55;;;;;;;10.60;1.85;;;15.00;99.90;;;;;;5104273;27;39615;-72
2021/12/31 04:40:21;;;;;;;4.05;1.80;;;15.00;99.90;;;;;;5109772;27;37296;-72
2021/12/31 04:42:48;;;;;;;3.70;1.90;;;15.00;99.90;;;;;;5086798;28;40643;-72
2021/12/31 04:45:14;;;;;;;6.15;2.22;;;14.90;99.90;;;;;;5112047;27;39098;-72
2021/12/31 04:47:40;;;;;;;10.30;2.50;;;14.90;99.90;;;;;;5105342;27;38341;-71
2021/12/31 04:50:07;;;;;;;7.65;2.22;;;14.80;99.90;;;;;;5097292;28;39498;-72
2021/12/31 04:52:33;;;;;;;6.07;2.45;;;14.80;99.90;;;;;;5072347;27;39398;-72
2021/12/31 04:55:00;;;;;;;8.90;2.40;;;14.70;99.90;;;;;;5098622;27;38668;-72
2021/12/31 04:57:27;;;;;;;8.90;2.47;;;14.70;99.90;;;;;;5096430;27;37687;-72
2021/12/31 04:59:53;;;;;;;8.43;2.35;;;14.60;99.90;;;;;;5116084;27;37355;-72
2021/12/31 05:02:19;;;;;;;8.48;2.90;;;14.50;99.90;;;;;;5116124;27;39934;-72
2021/12/31 05:04:45;;;;;;;11.10;2.80;;;14.50;99.90;;;;;;5089272;28;40008;-72
2021/12/31 05:07:11;;;;;;;9.82;2.53;;;14.40;99.90;;;;;;5086171;28;38678;-72
2021/12/31 05:09:37;;;;;;;10.48;2.95;;;14.30;99.90;;;;;;5087405;28;38962;-73
2021/12/31 05:12:05;;;;;;;10.00;3.72;;;14.20;99.90;;;;;;5101938;27;38473;-72
2021/12/31 05:14:31;;;;;;;6.13;2.80;;;14.20;99.90;;;;;;5096206;27;40105;-72
2021/12/31 05:16:58;;;;;;;7.90;2.58;;;14.20;99.90;;;;;;5091363;27;38095;-73
2021/12/31 05:19:25;;;;;;;10.25;2.90;;;14.20;99.90;;;;;;5107545;27;38932;-73
2021/12/31 05:21:52;;;;;;;6.13;2.47;;;14.10;99.90;;;;;;5086173;28;40816;-73
2021/12/31 05:24:18;;;;;;;8.90;2.72;;;14.10;99.90;;;;;;5081634;27;38774;-73
2021/12/31 05:26:44;;;;;;;8.93;2.85;;;14.10;99.90;;;;;;5100229;27;39552;-73
2021/12/31 05:29:10;;;;;;;7.32;3.00;;;14.10;99.90;;;;;;5098725;27;38167;-72
2021/12/31 05:31:37;;;;;;;6.40;2.90;;;14.00;99.90;;;;;;5103756;27;39437;-74
2021/12/31 05:34:03;;;;;;;11.25;3.38;;;14.00;99.90;;;;;;5115266;27;38994;-74
2021/12/31 05:36:29;;;;;;;7.72;3.22;;;14.00;99.90;;;;;;5092048;28;35354;-74
2021/12/31 05:38:55;;;;;;;7.60;2.88;;;14.00;99.90;;;;;;5107082;27;37579;-72
2021/12/31 05:41:21;;;;;;;10.18;3.10;;;13.90;99.90;;;;;;5093716;27;40549;-72
2021/12/31 05:43:47;;;;;;;7.07;2.70;;;13.90;99.90;;;;;;5101693;27;39287;-73
2021/12/31 05:46:13;;;;;;;8.48;2.47;;;14.00;99.90;;;;;;5105497;27;38184;-72
2021/12/31 05:48:40;;;;;;;6.25;2.55;;;13.90;99.90;;;;;;5102370;27;37044;-73
2021/12/31 05:51:06;;;;;;;6.90;2.88;;;13.90;99.90;;;;;;5089685;27;40240;-73
2021/12/31 05:53:32;;;;;;;9.00;2.85;;;13.80;99.90;;;;;;5086443;28;40236;-73
2021/12/31 05:55:58;;;;;;;3.85;2.42;;;13.80;99.90;;;;;;5111844;27;38012;-73
2021/12/31 05:58:25;;;;;;;4.75;2.75;;;13.80;99.90;;;;;;5085138;28;38169;-73
2021/12/31 06:00:51;;;;;;;5.85;2.40;;;13.70;99.90;;;;;;5082750;27;39751;-73
2021/12/31 06:03:18;;;;;;;5.35;2.53;;;13.70;99.90;;;;;;5095019;27;38527;-73
2021/12/31 06:05:44;;;;;;;4.20;2.70;;;13.70;99.90;;;;;;5081170;28;39971;-73
2021/12/31 06:08:10;;;;;;;11.40;2.80;;;13.70;99.90;;;;;;5093449;27;37038;-72
2021/12/31 06:10:42;;;;;;;6.95;2.47;;;13.70;99.90;;;;;;5102073;27;38685;-72
2021/12/31 06:13:10;;;;;;;11.02;2.75;;;13.60;99.90;;;;;;5099620;27;38535;-72
2021/12/31 06:15:37;;;;;;;8.90;3.13;;;13.70;99.90;;;;;;5098856;27;38730;-72
2021/12/31 06:18:03;;;;;;;7.32;2.85;;;13.70;99.90;;;;;;5086858;28;37528;-72
2021/12/31 06:20:29;;;;;;;7.40;2.72;;;13.70;99.90;;;;;;5091481;27;39957;-72
2021/12/31 06:22:58;;;;;;;9.30;2.45;;;13.60;99.90;;;;;;5099672;27;39177;-72
2021/12/31 06:25:25;;;;;;;7.28;2.70;;;13.60;99.90;;;;;;5102561;27;38588;-72
2021/12/31 06:27:51;;;;;;;8.48;3.20;;;13.60;99.90;;;;;;5093424;27;37312;-73
2021/12/31 06:30:17;;;;;;;7.15;2.65;;;13.60;99.90;;;;;;5089316;27;40577;-73
2021/12/31 06:32:44;;;;;;;9.40;3.03;;;13.60;99.90;;;;;;5076549;28;39886;-73
2021/12/31 06:35:10;;;;;;;6.15;2.67;;;13.50;99.90;;;;;;5082695;27;39925;-73
2021/12/31 06:37:37;;;;;;;7.75;3.08;;;13.50;99.90;;;;;;5088438;27;37912;-73
2021/12/31 06:40:06;;;;;;;6.90;2.92;;;13.50;99.90;;;;;;5084176;27;39349;-73
2021/12/31 06:42:35;;;;;;;5.15;2.90;;;13.50;99.90;;;;;;5098144;27;48800;-72
2021/12/31 06:45:01;;;;;;;7.25;2.95;;;13.50;99.90;;;;;;5110222;27;38226;-73
2021/12/31 06:47:27;;;;;;;5.28;2.55;;;13.50;99.90;;;;;;5091575;27;48905;-73
2021/12/31 06:49:53;;;;;;;10.23;3.20;;;13.50;99.90;;;;;;5091725;27;39401;-73
2021/12/31 06:52:19;;;;;;;5.78;2.58;;;13.50;99.90;;;;;;5103165;27;37211;-73
2021/12/31 06:54:47;;;;;;;7.68;2.80;;;13.50;99.90;;;;;;5094017;27;38510;-73
2021/12/31 06:57:13;;;;;;;7.75;2.80;;;13.60;99.90;;;;;;5106779;27;37270;-73
2021/12/31 06:59:39;;;;;;;5.85;2.40;;;13.60;99.90;;;;;;5080254;28;40206;-72
2021/12/31 07:02:06;;;;;;;9.70;2.60;;;13.60;99.90;;;;;;5097718;27;38179;-73
2021/12/31 07:04:32;;;;;;;7.28;2.55;;;13.60;99.90;;;;;;5080427;28;39428;-73
2021/12/31 07:06:58;;;;;;;4.70;2.60;;;13.60;99.90;;;;;;5086742;27;37234;-73
2021/12/31 07:09:24;;;;;;;4.60;2.60;;;13.60;99.90;;;;;;5090444;28;39276;-73
2021/12/31 07:11:50;;;;;;;6.53;2.47;;;13.50;99.90;;;;;;5114493;27;39177;-73
2021/12/31 07:14:16;;;;;;;6.45;2.78;;;13.60;99.90;;;;;;5087960;27;39631;-73
2021/12/31 07:16:42;;;;;;;7.60;2.58;;;13.60;99.90;;;;;;5089049;27;38675;-72
2021/12/31 07:19:09;;;;;;;8.98;3.00;;;13.50;99.90;;;;;;5090417;27;39752;-73
2021/12/31 07:21:35;;;;;;;6.53;2.70;;;13.60;99.90;;;;;;5080349;27;39795;-72
2021/12/31 07:24:01;;;;;;;7.05;2.58;;;13.50;99.90;;;;;;5088886;27;40203;-72
2021/12/31 07:26:27;;;;;;;8.25;2.88;;;13.50;99.90;;;;;;5094348;27;46947;-72
2021/12/31 07:28:53;;;;;;;5.32;2.50;;;13.50;99.90;;;;;;5081197;27;39374;-74
2021/12/31 07:31:19;;;;;;;7.68;2.60;;;13.50;99.90;;;;;;5100854;27;39241;-73
2021/12/31 07:33:45;;;;;;;10.75;3.10;;;13.50;99.90;;;;;;5087795;27;39542;-73
2021/12/31 07:36:11;;;;;;;8.50;2.67;;;13.50;99.90;;;;;;5102598;27;37940;-74
2021/12/31 07:38:40;;;;;;;6.25;3.15;;;13.50;99.90;;;;;;5104304;27;38685;-73
2021/12/31 07:41:06;;;;;;;5.90;2.67;;;13.60;99.90;;;;;;5087187;27;39603;-73
2021/12/31 07:43:33;;;;;;;4.47;1.98;;;13.60;99.90;;;;;;5085420;27;38563;-73
2021/12/31 07:45:59;;;;;;;6.38;2.60;;;13.60;99.90;;;;;;5100841;27;37249;-73
2021/12/31 07:48:25;;;;;;;9.00;2.75;;;13.50;99.90;;;;;;5093901;27;38460;-73
2021/12/31 07:50:53;;;;;;;7.45;2.83;;;13.60;99.90;;;;;;5078181;27;37326;-73
2021/12/31 07:53:20;;;;;;;4.88;2.50;;;13.60;99.90;;;;;;5075537;28;38884;-73
2021/12/31 07:55:46;;;;;;;7.68;2.47;;;13.60;99.90;;;;;;5078407;27;38335;-73
2021/12/31 07:58:12;;;;;;;5.65;2.65;;;13.60;99.90;;;;;;5089475;27;39997;-73
2021/12/31 08:00:38;;;;;;;7.82;2.63;;;13.60;99.90;;;;;;5079811;27;39096;-74
2021/12/31 08:03:05;;;;;;;9.88;2.88;;;13.60;99.90;;;;;;5098121;27;37909;-73
2021/12/31 08:05:31;;;;;;;6.47;2.38;;;13.70;99.90;;;;;;5081810;28;38774;-74
2021/12/31 08:08:00;;;;;;;5.40;2.15;;;13.70;99.90;;;;;;5103507;27;38798;-74
2021/12/31 08:10:26;;;;;;;6.28;2.50;;;13.70;99.90;;;;;;5098874;27;38875;-73
2021/12/31 08:12:52;;;;;;;6.60;2.60;;;13.70;99.90;;;;;;5103563;27;40267;-73
2021/12/31 08:15:18;;;;;;;5.53;2.42;;;13.60;99.90;;;;;;5103944;27;37001;-73
2021/12/31 08:17:44;;;;;;;4.72;2.20;;;13.60;99.90;;;;;;5078109;27;39643;-73
2021/12/31 08:20:11;;;;;;;4.25;2.50;;;13.60;99.90;;;;;;5099583;27;38802;-73
2021/12/31 08:22:37;;;;;;;7.55;2.90;;;13.60;99.90;;;;;;5103057;27;38610;-73
2021/12/31 08:25:03;;;;;;;4.82;2.58;;;13.70;99.90;;;;;;5090718;27;38531;-72
2021/12/31 08:27:29;;;;;;;10.23;2.63;;;13.70;99.90;;;;;;5105901;27;48038;-73
2021/12/31 08:29:56;;;;;;;6.00;2.70;;;13.80;99.90;;;;;;5094295;28;38958;-73
2021/12/31 08:32:22;;;;;;;9.18;3.13;;;13.80;99.90;;;;;;5088902;27;38901;-73
2021/12/31 08:34:48;;;;;;;5.65;2.05;;;13.80;99.90;;;;;;5087978;27;37686;-73
2021/12/31 08:37:14;;;;;;;5.57;2.28;;;13.80;99.90;;;;;;5111058;27;38866;-73
2021/12/31 08:39:40;;;;;;;6.00;2.05;;;13.80;99.90;;;;;;5116803;27;38122;-74
2021/12/31 08:42:06;;;;;;;6.50;3.55;;;13.70;99.90;;;;;;5098794;27;39795;-74
2021/12/31 08:44:33;;;;;;;7.10;2.60;;;13.70;99.90;;;;;;5104108;27;37658;-74
2021/12/31 08:46:59;;;;;;;5.88;2.72;;;13.70;99.90;;;;;;5108167;27;39536;-74
2021/12/31 08:49:25;;;;;;;7.30;2.45;;;13.70;99.90;;;;;;5097232;27;39117;-74
2021/12/31 08:51:51;;;;;;;5.75;2.05;;;13.60;99.90;;;;;;5089163;27;37954;-74
2021/12/31 08:54:18;;;;;;;6.38;2.22;;;13.70;99.90;;;;;;5107879;27;37799;-74
2021/12/31 08:56:45;;;;;;;5.35;2.47;;;13.70;99.90;;;;;;5101793;27;37864;-74
2021/12/31 08:59:13;;;;;;;6.10;2.53;;;13.70;99.90;;;;;;5103046;27;39269;-74
2021/12/31 09:01:39;;;;;;;7.18;2.50;;;13.70;99.90;;;;;;5110114;27;39133;-74
2021/12/31 09:04:05;;;;;;;4.25;2.50;;;13.70;99.90;;;;;;5103498;27;37534;-74
2021/12/31 09:06:31;;;;;;;4.63;2.47;;;13.80;99.90;;;;;;5076672;28;39441;-74
2021/12/31 09:08:57;;;;;;;9.23;4.28;;;13.80;99.90;;;;;;5087926;28;39068;-74
2021/12/31 09:11:23;;;;;;;7.22;2.75;;;13.80;99.90;;;;;;5089870;28;38001;-74
2021/12/31 09:13:54;;;;;;;6.72;3.70;;;13.80;99.90;;;;;;5069379;28;38042;-73
2021/12/31 09:16:20;;;;;;;4.78;2.60;;;13.80;99.90;;;;;;5068109;28;38981;-74
2021/12/31 09:18:46;;;;;;;6.47;2.53;;;13.80;99.90;;;;;;5085618;28;38883;-74
2021/12/31 09:21:14;;;;;;;11.27;3.40;;;13.80;99.90;;;;;;5063802;28;38421;-75
2021/12/31 09:23:40;;;;;;;6.28;3.22;;;13.80;99.90;;;;;;5083808;28;37103;-74
2021/12/31 09:26:06;;;;;;;5.20;2.58;;;13.70;99.90;;;;;;5077156;28;40431;-74
2021/12/31 09:28:32;;;;;;;5.45;2.60;;;13.70;99.90;;;;;;5064913;28;40927;-73
2021/12/31 09:31:01;;;;;;;5.32;3.05;;;13.70;99.90;;;;;;5081408;28;38582;-74
2021/12/31 09:33:28;;;;;;;4.60;2.72;;;13.70;99.90;;;;;;5084411;28;47427;-73
2021/12/31 09:35:54;;;;;;;9.25;3.33;;;13.80;99.90;;;;;;5065720;28;39751;-75
2021/12/31 09:38:20;;;;;;;6.60;2.97;;;13.80;99.90;;;;;;5070057;28;39908;-74
2021/12/31 09:40:47;;;;;;;12.25;7.20;;;13.70;99.90;;;;;;5063696;28;38322;-74
2021/12/31 09:43:14;;;;;;;7.68;3.00;;;13.70;99.90;;;;;;5067184;28;36835;-74
2021/12/31 09:45:43;;;;;;;8.20;2.97;;;13.70;99.90;;;;;;5066503;28;38968;-73
2021/12/31 09:48:11;;;;;;;8.15;3.60;;;13.70;99.90;;;;;;5082923;28;38687;-74
2021/12/31 09:50:40;;;;;;;5.13;3.42;;;13.70;99.90;;;;;;5082423;28;37511;-74
2021/12/31 09:53:08;;;;;;;5.53;3.22;;;13.70;99.90;;;;;;5087867;27;37802;-74
2021/12/31 09:55:36;;;;;;;7.28;3.20;;;13.70;99.90;;;;;;5083706;28;40134;-74
2021/12/31 09:58:02;;;;;;;7.93;3.50;;;13.70;99.90;;;;;;5057220;28;39098;-74
2021/12/31 10:00:28;;;;;;;6.10;3.25;;;13.70;99.90;;;;;;5062876;28;47835;-73
2021/12/31 10:03:16;;;;;;;9.25;4.72;;;13.60;99.90;;;;;;5084525;28;37397;-73
2021/12/31 10:05:48;;;;;;;8.20;4.70;;;13.60;99.90;;;;;;5089882;27;48690;-73
2021/12/31 10:08:23;;;;;;;7.15;4.85;;;13.70;99.90;;;;;;5083271;27;37257;-72
2021/12/31 10:11:12;;;;;;;7.10;3.42;;;13.70;99.90;;;;;;5097734;27;39093;-74
2021/12/31 10:14:03;;;;;;;7.22;4.25;;;13.80;99.90;;;;;;5074617;27;47308;-72
2021/12/31 10:16:37;;;;;;;8.10;3.50;;;13.80;99.90;;;;;;5080710;28;47586;-73
2021/12/31 10:19:10;;;;;;;7.80;4.10;;;13.80;99.90;;;;;;5099172;27;36175;-72
2021/12/31 10:21:42;;;;;;;8.07;4.47;;;13.80;99.90;;;;;;5102349;27;38925;-73
2021/12/31 10:24:25;;;;;;;5.03;3.10;;;13.80;99.90;;;;;;5082653;28;38326;-73
2021/12/31 10:26:57;;;;;;;5.38;3.90;;;13.80;99.90;;;;;;5092708;28;38823;-73
2021/12/31 10:29:24;;;;;;;;;;;13.80;99.90;;;;;;5095509;27;38529;-73
2021/12/31 10:31:51;;;;;;;7.50;3.08;;;13.90;99.90;;;;;;5083929;27;39508;-73
2021/12/31 10:34:37;;;;;;;6.65;3.17;;;13.90;99.90;;;;;;5096920;27;36829;-73
2021/12/31 10:37:14;;;;;;;8.02;3.58;;;13.90;99.90;;;;;;5101525;27;40425;-73
2021/12/31 10:39:40;;;;;;;6.57;3.85;;;13.90;99.90;;;;;;5102622;27;39268;-73
2021/12/31 10:42:09;;;;;;;7.78;4.32;;;13.90;99.90;;;;;;5072869;28;39617;-73
2021/12/31 10:44:49;;;;;;;9.75;4.45;;;13.90;99.90;;;;;;5072738;28;37875;-75
2021/12/31 10:47:35;;;;;;;9.50;4.78;;;13.80;99.90;;;;;;5099443;27;39539;-73
2021/12/31 10:50:03;;;;;;;7.18;3.92;;;13.90;99.90;;;;;;5080371;28;41368;-73
2021/12/31 10:52:42;;;;;;;7.95;4.53;;;14.00;99.90;;;;;;5076530;28;46495;-73
2021/12/31 10:55:23;;;;;;;7.82;4.97;;;14.00;99.90;;;;;;5098371;27;37327;-73
2021/12/31 10:57:54;;;;;;;9.15;4.80;;;14.20;99.90;;;;;;5085744;28;37844;-73
2021/12/31 11:00:21;;;;;;;8.02;4.22;;;14.30;99.90;;;;;;5100404;27;39950;-72
2021/12/31 11:02:48;;;;;;;9.90;3.67;;;14.30;99.90;;;;;;5104881;27;39000;-72
2021/12/31 11:05:20;;;;;;;7.32;3.65;;;14.40;99.90;;;;;;5098186;27;36919;-72
2021/12/31 11:07:47;;;;;;;8.48;4.60;;;14.50;99.90;;;;;;5101506;27;38590;-72
2021/12/31 11:10:15;;;;;;;9.73;5.50;;;14.50;99.90;;;;;;5103292;27;38344;-72
2021/12/31 11:12:46;;;;;;;20.98;12.55;;;14.40;99.90;;;;;;5103371;27;37788;-72
2021/12/31 11:15:14;;;;;;;10.30;6.45;;;14.20;99.90;;;;;;5095080;27;36177;-72
2021/12/31 11:17:40;;;;;;;7.78;6.43;;;14.10;99.90;;;;;;5085815;27;37768;-71
2021/12/31 11:20:08;;;;;;;13.35;8.73;;;14.00;99.90;;;;;;5086708;27;38076;-72
2021/12/31 11:22:34;;;;;;;15.90;10.43;;;13.90;99.90;;;;;;5080613;27;37113;-72
2021/12/31 11:25:23;;;;;;;17.30;10.77;;;13.80;99.90;;;;;;5101212;27;38249;-72
2021/12/31 11:27:51;;;;;;;14.75;7.53;;;13.70;99.90;;;;;;5098662;27;48241;-73
2021/12/31 11:30:30;;;;;;;17.00;10.60;;;13.70;99.90;;;;;;5105768;27;38441;-72
2021/12/31 11:33:11;;;;;;;11.38;6.13;;;13.70;99.90;;;;;;5093429;27;39188;-72
2021/12/31 11:36:05;;;;;;;11.32;6.30;;;13.80;99.90;;;;;;5085428;27;47349;-72
2021/12/31 11:38:31;;;;;;;9.00;4.90;;;13.90;99.90;;;;;;5078648;27;47231;-73
2021/12/31 11:41:09;;;;;;;12.75;5.00;;;14.00;99.90;;;;;;5096542;27;38426;-73
2021/12/31 11:43:41;;;;;;;6.60;4.57;;;14.10;99.90;;;;;;5090656;27;47012;-72
2021/12/31 11:46:14;;;;;;;7.53;4.70;;;14.10;99.90;;;;;;5084868;27;37971;-72
2021/12/31 11:48:52;;;;;;;8.70;4.90;;;14.10;99.90;;;;;;5089137;27;39992;-73
2021/12/31 11:51:27;;;;;;;11.98;6.18;;;14.00;99.90;;;;;;5092783;27;38530;-74
2021/12/31 11:53:56;;;;;;;10.77;7.15;;;14.00;99.90;;;;;;5088003;27;37135;-73
2021/12/31 11:59:09;;;;;;;11.82;5.22;;;14.00;99.90;;;;;;5111458;27;39742;-72
2021/12/31 12:01:40;;;;;;;9.90;5.07;;;14.10;99.90;;;;;;5094062;27;47524;-73
2021/12/31 12:04:24;;;;;;;11.98;4.30;;;14.30;99.90;;;;;;5110627;27;38084;-72
2021/12/31 12:07:03;;;;;;;7.28;4.82;;;14.30;99.90;;;;;;5089632;27;37237;-72
2021/12/31 12:09:35;;;;;;;10.57;4.80;;;14.40;99.90;;;;;;5093035;27;47234;-72
2021/12/31 12:12:11;;;;;;;10.45;4.72;;;14.50;99.90;;;;;;5088630;27;38810;-71
2021/12/31 12:14:41;;;;;;;7.20;4.30;;;14.50;99.90;;;;;;5106979;27;49831;-72
2021/12/31 12:17:11;;;;;;;10.02;5.20;;;14.40;99.90;;;;;;5103909;27;37473;-72
2021/12/31 12:19:46;;;;;;;13.57;6.05;;;14.40;99.90;;;;;;5103717;27;39776;-71
2021/12/31 12:22:35;;;;;;;7.35;4.93;;;14.50;99.90;;;;;;5088800;27;37378;-71
2021/12/31 12:25:26;;;;;;;8.77;4.35;;;14.50;99.90;;;;;;5094779;27;38190;-72
2021/12/31 12:28:06;;;;;;;10.45;5.03;;;14.60;99.90;;;;;;5087705;27;47299;-72
2021/12/31 12:30:46;;;;;;;11.43;5.90;;;14.60;99.90;;;;;;5083987;27;47330;-71
2021/12/31 12:33:19;;;;;;;12.93;5.63;;;14.60;99.90;;;;;;5088623;27;38679;-72
2021/12/31 12:35:48;;;;;;;13.52;4.63;;;14.60;99.90;;;;;;5091874;27;37012;-71
2021/12/31 12:38:26;;;;;;;13.00;5.68;;;14.60;99.90;;;;;;5102091;27;36359;-72
2021/12/31 12:40:55;;;;;;;11.82;5.95;;;14.70;99.90;;;;;;5085957;27;37663;-71
2021/12/31 12:43:35;;;;;;;9.27;4.50;;;14.80;99.90;;;;;;5109214;27;38285;-72
2021/12/31 12:46:07;;;;;;;13.88;5.78;;;15.00;99.90;;;;;;5088868;27;38104;-73
2021/12/31 12:48:35;;;;;;;17.67;5.68;;;15.00;99.90;;;;;;5095838;27;37564;-72
2021/12/31 12:51:06;;;;;;;14.93;4.90;;;15.00;99.90;;;;;;5081786;27;37888;-74
2021/12/31 12:53:36;;;;;;;12.60;4.63;;;15.00;99.90;;;;;;5095900;27;47072;-72
2021/12/31 12:56:11;;;;;;;14.00;5.22;;;15.00;99.90;;;;;;5086352;27;38601;-72
2021/12/31 12:58:47;;;;;;;16.75;8.68;;;15.00;99.90;;;;;;5091872;27;37462;-72